Time;durP1;ratioP1;P1;durP2;ratioP2;P2;SDS_P1;SDS_P2;PMS_P1;PMS_P2;Temp;Humidity;BMP_temperature;BMP_pressure;BME280_temperature;BME280_humidity;BME280_pressure;Samples;Min_cycle;Max_cycle;Signal;HPM_P1;HPM_P2
2022/04/16 00:00:58;;;;;;;;;1.00;1.00;;;;;17.26;41.91;98859.50;4822277;29;102424;-65
2022/04/16 00:03:25;;;;;;;;;2.75;2.75;;;;;17.27;41.61;98863.88;4827133;29;104263;-65
2022/04/16 00:05:55;;;;;;;;;2.00;1.75;;;;;17.27;41.67;98873.97;4827039;29;102459;-66
2022/04/16 00:08:23;;;;;;;;;2.00;2.00;;;;;17.29;41.49;98863.66;4827037;29;102525;-65
2022/04/16 00:10:50;;;;;;;;;2.00;2.00;;;;;17.28;41.30;98864.72;4824811;29;102507;-65
2022/04/16 00:13:18;;;;;;;;;2.00;1.00;;;;;17.27;41.94;98876.72;4829166;29;104033;-65
2022/04/16 00:15:55;;;;;;;;;2.50;2.00;;;;;17.27;42.03;98871.25;4810092;29;103173;-65
2022/04/16 00:18:23;;;;;;;;;2.00;2.00;;;;;17.26;40.95;98877.78;4813279;29;102206;-65
2022/04/16 00:20:51;;;;;;;;;1.75;1.75;;;;;17.26;41.42;98873.16;4821928;29;102540;-65
2022/04/16 00:23:21;;;;;;;;;1.25;1.25;;;;;17.25;41.85;98884.31;4828952;29;104099;-65
2022/04/16 00:25:49;;;;;;;;;2.00;2.00;;;;;17.25;42.11;98881.56;4826062;29;102488;-65
2022/04/16 00:28:16;;;;;;;;;1.00;1.00;;;;;17.24;41.66;98883.50;4828950;29;102422;-65
2022/04/16 00:30:43;;;;;;;;;3.00;2.25;;;;;17.22;41.41;98888.38;4831473;29;102162;-65
2022/04/16 00:33:12;;;;;;;;;2.00;1.50;;;;;17.20;41.43;98882.28;4830761;29;104311;-65
2022/04/16 00:35:43;;;;;;;;;1.25;1.00;;;;;17.21;41.96;98881.22;4827738;29;102131;-65
2022/04/16 00:38:11;;;;;;;;;2.00;2.00;;;;;17.20;41.75;98887.75;4814806;29;102409;-65
2022/04/16 00:40:38;;;;;;;;;1.00;1.00;;;;;17.22;41.65;98893.00;4829958;29;102548;-65
2022/04/16 00:43:06;;;;;;;;;1.00;1.00;;;;;17.21;40.94;98894.06;4828791;29;104119;-65
2022/04/16 00:45:33;;;;;;;;;2.00;2.00;;;;;17.20;41.11;98882.28;4826010;29;102249;-65
2022/04/16 00:48:00;;;;;;;;;2.00;1.00;;;;;17.21;41.21;98880.38;4829044;29;102020;-65
2022/04/16 00:50:27;;;;;;;;;2.00;2.00;;;;;17.21;42.08;98883.97;4829293;29;102602;-65
2022/04/16 00:52:54;;;;;;;;;1.50;1.50;;;;;17.21;41.17;98892.16;4830354;29;104271;-65
2022/04/16 00:55:21;;;;;;;;;2.25;1.50;;;;;17.21;41.57;98889.41;4827315;29;102101;-65
2022/04/16 00:57:48;;;;;;;;;1.75;1.75;;;;;17.21;41.62;98883.13;4829378;29;102469;-65
2022/04/16 01:00:15;;;;;;;;;3.00;2.75;;;;;17.20;41.72;98892.41;4826663;29;102645;-65
2022/04/16 01:02:42;;;;;;;;;2.75;2.50;;;;;17.19;41.58;98891.56;4828796;29;104677;-65
2022/04/16 01:05:12;;;;;;;;;2.25;1.25;;;;;17.17;41.56;98890.97;4830011;29;102323;-65
2022/04/16 01:07:56;;;;;;;;;1.00;1.00;;;;;17.18;41.67;98894.53;4828581;29;102324;-65
2022/04/16 01:10:28;;;;;;;;;2.00;2.00;;;;;17.16;42.26;98899.41;4821821;29;102235;-65
2022/04/16 01:12:57;;;;;;;;;1.25;1.25;;;;;17.14;41.67;98899.66;4826928;29;104106;-65
2022/04/16 01:15:24;;;;;;;;;1.75;1.75;;;;;17.14;41.82;98907.00;4829380;29;102452;-65
2022/04/16 01:17:51;;;;;;;;;1.50;1.50;;;;;17.14;41.11;98910.59;4827286;29;102454;-65
2022/04/16 01:20:18;;;;;;;;;2.00;2.00;;;;;17.14;41.83;98909.75;4827894;29;102345;-65
2022/04/16 01:22:48;;;;;;;;;3.00;2.25;;;;;17.14;41.20;98904.28;4828590;29;104105;-65
2022/04/16 01:25:15;;;;;;;;;1.75;1.00;;;;;17.14;41.40;98898.81;4826242;29;101996;-65
2022/04/16 01:27:50;;;;;;;;;2.00;2.00;;;;;17.14;41.29;98912.47;4826165;29;102347;-65
2022/04/16 01:30:18;;;;;;;;;1.25;1.25;;;;;17.14;42.11;98912.47;4829977;29;102198;-65
2022/04/16 01:32:45;;;;;;;;;2.00;2.00;;;;;17.14;41.28;98912.47;4812581;29;104160;-65
2022/04/16 01:35:14;;;;;;;;;0.00;0.00;;;;;17.14;41.31;98920.66;4826060;29;102424;-65
2022/04/16 01:37:41;;;;;;;;;2.00;1.25;;;;;17.12;41.69;98920.91;4825601;29;103183;-65
2022/04/16 01:40:09;;;;;;;;;1.00;1.00;;;;;17.13;42.32;98927.19;4826059;29;102445;-65
2022/04/16 01:42:36;;;;;;;;;2.00;2.00;;;;;17.10;42.11;98924.94;4809804;29;104039;-65
2022/04/16 01:45:10;;;;;;;;;1.50;1.50;;;;;17.10;41.66;98933.16;4813011;29;102267;-65
2022/04/16 01:47:38;;;;;;;;;1.25;1.00;;;;;17.08;41.43;98933.38;4825088;29;102527;-66
2022/04/16 01:50:07;;;;;;;;;1.00;1.00;;;;;17.07;41.76;98928.97;4826434;29;102594;-65
2022/04/16 01:52:35;;;;;;;;;1.00;1.00;;;;;17.06;41.68;98940.16;4825579;29;104133;-65
2022/04/16 01:55:03;;;;;;;;;2.25;2.00;;;;;17.07;41.73;98939.06;4826581;29;102687;-65
2022/04/16 01:57:30;;;;;;;;;2.00;1.75;;;;;17.07;41.57;98936.31;4826504;29;102134;-65
2022/04/16 01:59:56;;;;;;;;;1.00;1.00;;;;;17.06;41.89;98938.25;4823324;29;102399;-65
2022/04/16 02:02:23;;;;;;;;;2.00;1.33;;;;;17.08;41.84;98946.19;4826730;29;104050;-65
2022/04/16 02:04:51;;;;;;;;;1.50;1.50;;;;;17.07;42.04;98947.25;4826333;29;103145;-65
2022/04/16 02:07:18;;;;;;;;;1.00;1.00;;;;;17.04;42.22;98943.09;4810575;29;102280;-65
2022/04/16 02:09:44;;;;;;;;;1.00;1.00;;;;;17.06;41.62;98942.88;4828591;29;103397;-65
2022/04/16 02:12:13;;;;;;;;;2.00;2.00;;;;;17.06;42.22;98951.06;4822485;29;103776;-65
2022/04/16 02:14:40;;;;;;;;;1.50;1.25;;;;;17.05;41.69;98950.25;4827640;29;102532;-65
2022/04/16 02:17:06;;;;;;;;;2.00;1.50;;;;;17.05;41.25;98946.66;4823412;29;102065;-64
2022/04/16 02:19:34;;;;;;;;;3.00;2.00;;;;;17.05;41.62;98952.13;4826182;29;102322;-65
2022/04/16 02:22:00;;;;;;;;;1.75;1.75;;;;;17.04;41.77;98956.75;4826343;29;104058;-65
2022/04/16 02:24:27;;;;;;;;;2.00;2.00;;;;;17.03;42.37;98957.00;4825216;29;102395;-65
2022/04/16 02:26:58;;;;;;;;;1.75;1.00;;;;;17.03;42.37;98966.03;4823284;29;102093;-65
2022/04/16 02:29:25;;;;;;;;;1.00;1.00;;;;;17.02;42.33;98958.06;4809821;29;102448;-65
2022/04/16 02:31:52;;;;;;;;;2.00;2.00;;;;;17.00;41.65;98961.03;4824518;29;104085;-65
2022/04/16 02:34:19;;;;;;;;;2.00;2.00;;;;;16.99;41.13;98964.00;4829472;29;102338;-65
2022/04/16 02:36:46;;;;;;;;;1.50;1.50;;;;;16.99;42.00;98969.44;4825335;29;102441;-65
2022/04/16 02:39:14;;;;;;;;;1.00;1.00;;;;;16.99;42.15;98964.00;4826429;29;102461;-65
2022/04/16 02:41:42;;;;;;;;;1.00;1.00;;;;;17.00;41.91;98968.41;4827364;29;104168;-65
2022/04/16 02:47:05;;;;;;;;;2.00;1.00;;;;;17.00;41.45;98971.97;4826319;29;102118;-65
2022/04/16 02:47:08;;;;;;;;;1.00;1.00;;;;;16.99;42.24;98972.19;4828765;29;102409;-65
2022/04/16 02:49:41;;;;;;;;;1.00;1.00;;;;;16.98;41.67;98973.25;4807018;29;102531;-65
2022/04/16 02:52:08;;;;;;;;;1.00;1.00;;;;;16.99;41.50;98974.91;4826268;29;104089;-65
2022/04/16 02:54:35;;;;;;;;;1.00;1.00;;;;;16.98;41.94;98976.81;4824871;29;102117;-65
2022/04/16 02:57:03;;;;;;;;;1.00;1.00;;;;;16.98;41.54;98974.06;4827008;29;102544;-65
2022/04/16 02:59:32;;;;;;;;;1.00;1.00;;;;;16.97;42.08;98977.91;4827926;29;102405;-65
2022/04/16 03:01:59;;;;;;;;;1.00;1.00;;;;;16.97;41.88;98988.81;4824609;29;104255;-64
2022/04/16 03:04:26;;;;;;;;;1.50;1.25;;;;;16.96;42.39;98981.69;4826932;29;102088;-65
2022/04/16 03:06:53;;;;;;;;;1.00;1.00;;;;;16.95;41.66;98983.59;4809961;29;102306;-65
2022/04/16 03:09:20;;;;;;;;;1.00;1.00;;;;;16.94;41.59;98978.34;4825319;29;102090;-65
2022/04/16 03:11:47;;;;;;;;;1.00;1.00;;;;;16.92;42.01;98992.25;4825790;29;104018;-65
2022/04/16 03:19:45;;;;;;;;;1.00;1.00;;;;;16.90;41.46;98996.28;4829014;29;102387;-65
2022/04/16 03:22:13;;;;;;;;;2.00;2.00;;;;;16.92;41.58;98992.25;4815378;29;104099;-65
2022/04/16 03:24:40;;;;;;;;;2.00;1.50;;;;;16.91;41.82;98996.03;4824763;29;102285;-65
2022/04/16 03:27:07;;;;;;;;;1.00;1.00;;;;;16.90;41.53;99002.56;4823874;29;102193;-66
2022/04/16 03:29:34;;;;;;;;;0.00;0.00;;;;;16.91;41.82;99000.69;4809900;29;103348;-65
2022/04/16 03:32:01;;;;;;;;;1.00;1.00;;;;;16.92;41.36;99016.00;4823627;29;104039;-65
2022/04/16 03:34:28;;;;;;;;;1.25;1.00;;;;;16.91;41.76;99017.06;4826055;29;102021;-65
2022/04/16 03:36:56;;;;;;;;;1.50;1.50;;;;;16.90;41.08;99016.22;4830940;29;102303;-65
2022/04/16 03:39:23;;;;;;;;;1.00;1.00;;;;;16.90;41.80;99021.69;4834351;29;102227;-65
2022/04/16 03:41:51;;;;;;;;;1.50;1.00;;;;;16.89;41.38;99030.94;4828143;29;104117;-64
2022/04/16 03:44:18;;;;;;;;;1.75;1.00;;;;;16.88;41.64;99029.28;4830227;29;102253;-65
2022/04/16 03:46:45;;;;;;;;;0.75;0.75;;;;;16.88;41.58;99034.75;4832210;29;102281;-65
2022/04/16 03:49:12;;;;;;;;;1.00;1.00;;;;;16.86;42.30;99042.34;4829284;29;102076;-65
2022/04/16 03:51:39;;;;;;;;;1.00;1.00;;;;;16.84;42.38;99044.44;4833098;29;104244;-65
2022/04/16 04:02:23;;;;;;;;;1.00;1.00;;;;;16.83;41.55;99056.47;4832850;29;104381;-65
2022/04/16 04:04:50;;;;;;;;;1.00;0.00;;;;;16.84;41.42;99055.38;4823814;29;102579;-65
2022/04/16 04:07:17;;;;;;;;;1.25;0.75;;;;;16.83;42.02;99064.66;4832384;29;102460;-65
2022/04/16 04:09:45;;;;;;;;;1.00;1.00;;;;;16.83;41.57;99058.38;4831358;29;103483;-65
2022/04/16 04:12:12;;;;;;;;;0.00;0.00;;;;;16.82;41.46;99065.72;4831746;29;104003;-65
2022/04/16 04:14:40;;;;;;;;;0.75;0.75;;;;;16.83;41.06;99063.81;4831321;29;101990;-64
2022/04/16 04:17:07;;;;;;;;;0.00;0.00;;;;;16.83;42.11;99061.09;4816253;29;102524;-65
2022/04/16 04:19:38;;;;;;;;;1.00;1.00;;;;;16.80;41.47;99073.28;4829021;29;102563;-65
2022/04/16 04:22:07;;;;;;;;;1.00;1.00;;;;;16.82;41.56;99073.06;4834280;29;104140;-65
2022/04/16 04:24:36;;;;;;;;;1.00;1.00;;;;;16.80;42.00;99070.56;4830304;29;102435;-65
2022/04/16 04:27:03;;;;;;;;;1.75;1.00;;;;;16.79;42.02;99070.81;4832651;29;102160;-65
2022/04/16 04:29:30;;;;;;;;;1.00;1.00;;;;;16.77;42.00;99073.75;4829881;29;103232;-65
2022/04/16 04:31:57;;;;;;;;;1.00;1.00;;;;;16.76;41.18;99074.81;4831334;29;104048;-65
2022/04/16 04:34:24;;;;;;;;;0.50;0.50;;;;;16.77;41.45;99086.56;4831287;29;102419;-65
2022/04/16 04:36:51;;;;;;;;;0.25;0.25;;;;;16.76;41.31;99091.19;4827720;29;102421;-65
2022/04/16 04:39:23;;;;;;;;;0.00;0.00;;;;;16.76;41.97;99093.94;4834032;29;102080;-64
2022/04/16 04:41:50;;;;;;;;;1.00;1.00;;;;;16.76;41.23;99090.38;4827783;29;104086;-64
2022/04/16 04:44:17;;;;;;;;;0.00;0.00;;;;;16.76;42.10;99091.19;4830458;29;102025;-65
2022/04/16 04:46:50;;;;;;;;;1.00;1.00;;;;;16.75;41.57;99095.00;4825037;29;102372;-65
2022/04/16 04:49:17;;;;;;;;;1.00;1.00;;;;;16.76;41.84;99096.66;4825156;29;102683;-64
2022/04/16 04:51:44;;;;;;;;;0.00;0.00;;;;;16.76;41.72;99102.13;4826714;29;104067;-65
2022/04/16 04:54:11;;;;;;;;;0.25;0.25;;;;;16.75;41.57;99099.66;4827783;29;102238;-64
2022/04/16 04:56:38;;;;;;;;;1.00;0.00;;;;;16.73;41.86;99102.59;4828613;29;102010;-64
2022/04/16 04:59:04;;;;;;;;;2.00;1.00;;;;;16.74;41.46;99107.00;4827139;29;102319;-65
2022/04/16 05:01:31;;;;;;;;;1.00;1.00;;;;;16.73;41.55;99112.69;4827775;29;104094;-64
2022/04/16 05:03:58;;;;;;;;;0.00;0.00;;;;;16.72;42.11;99117.31;4826969;29;102229;-65
2022/04/16 05:06:25;;;;;;;;;1.00;1.00;;;;;16.73;41.59;99118.97;4828452;29;102181;-65
2022/04/16 05:08:52;;;;;;;;;0.00;0.00;;;;;16.72;41.89;99113.72;4830401;29;102320;-65
2022/04/16 05:11:19;;;;;;;;;0.00;0.00;;;;;16.71;41.72;99120.25;4830030;29;104335;-65
2022/04/16 05:13:46;;;;;;;;;0.25;0.25;;;;;16.70;41.48;99122.19;4826869;29;102187;-65
2022/04/16 05:16:13;;;;;;;;;0.75;0.75;;;;;16.68;41.73;99127.03;4829119;29;102044;-66
2022/04/16 05:18:41;;;;;;;;;0.00;0.00;;;;;16.68;41.37;99118.81;4826702;29;102086;-64
2022/04/16 05:21:08;;;;;;;;;1.00;0.25;;;;;16.69;41.87;99127.84;4810553;29;104105;-65
2022/04/16 05:23:39;;;;;;;;;0.00;0.00;;;;;16.69;41.60;99128.69;4826325;29;102180;-65
2022/04/16 05:26:10;;;;;;;;;0.00;0.00;;;;;16.69;41.72;99125.97;4825724;29;102653;-65
2022/04/16 05:28:37;;;;;;;;;0.75;0.75;;;;;16.69;41.75;99125.97;4829559;29;102142;-64
2022/04/16 05:31:05;;;;;;;;;0.00;0.00;;;;;16.69;41.99;99134.16;4827384;29;104322;-65
2022/04/16 05:36:17;;;;;;;;;0.75;0.00;;;;;16.68;41.55;99135.22;4827009;29;102231;-65
2022/04/16 05:38:45;;;;;;;;;1.00;1.00;;;;;16.67;42.12;99133.53;4824081;29;103178;-65
2022/04/16 05:41:12;;;;;;;;;1.00;0.00;;;;;16.67;41.33;99138.16;4825851;29;104057;-64
2022/04/16 05:43:39;;;;;;;;;0.00;0.00;;;;;16.68;41.30;99145.28;4826682;29;102125;-65
2022/04/16 05:46:06;;;;;;;;;0.00;0.00;;;;;16.66;41.56;99145.50;4828202;29;102327;-65
2022/04/16 05:48:33;;;;;;;;;1.00;0.00;;;;;16.66;41.86;99139.25;4826845;29;102345;-65
2022/04/16 05:50:59;;;;;;;;;0.00;0.00;;;;;16.65;41.27;99149.31;4824909;29;104095;-64
2022/04/16 05:53:26;;;;;;;;;1.00;1.00;;;;;16.64;41.30;99146.81;4813333;29;102174;-65
2022/04/16 05:55:53;;;;;;;;;0.25;0.25;;;;;16.65;41.67;99149.31;4825893;29;102365;-64
2022/04/16 05:58:20;;;;;;;;;0.00;0.00;;;;;16.64;41.64;99153.13;4823588;29;102397;-64
2022/04/16 06:00:47;;;;;;;;;0.00;0.00;;;;;16.65;41.57;99156.69;4824926;29;104108;-65
2022/04/16 06:03:18;;;;;;;;;1.25;0.00;;;;;16.64;41.64;99153.13;4829832;29;102317;-65
2022/04/16 06:05:46;;;;;;;;;1.00;1.00;;;;;16.65;41.70;99157.53;4827997;29;103198;-65
2022/04/16 06:08:13;;;;;;;;;1.00;1.00;;;;;16.65;42.15;99167.59;4832553;29;102275;-65
2022/04/16 06:10:40;;;;;;;;;1.00;1.00;;;;;16.64;41.20;99164.03;4825613;29;104064;-65
2022/04/16 06:13:10;;;;;;;;;0.50;0.50;;;;;16.65;41.23;99168.44;4829536;29;102507;-65
2022/04/16 06:15:41;;;;;;;;;0.00;0.00;;;;;16.65;41.27;99173.91;4823686;29;101970;-65
2022/04/16 06:18:09;;;;;;;;;0.00;0.00;;;;;16.64;41.69;99172.22;4829890;29;102191;-65
2022/04/16 06:20:36;;;;;;;;;0.75;0.75;;;;;16.64;41.86;99177.69;4822978;29;104079;-64
2022/04/16 06:23:03;;;;;;;;;0.00;0.00;;;;;16.64;41.86;99179.56;4828089;29;102274;-65
2022/04/16 06:25:31;;;;;;;;;1.00;0.00;;;;;16.63;41.65;99184.19;4826364;29;102198;-65
2022/04/16 06:27:58;;;;;;;;;1.00;1.00;;;;;16.62;41.43;99196.19;4825275;29;103350;-65
2022/04/16 06:30:25;;;;;;;;;0.00;0.00;;;;;16.63;41.86;99197.00;4826674;29;104175;-65
2022/04/16 06:32:52;;;;;;;;;1.00;0.25;;;;;16.61;41.92;99197.25;4826704;29;102085;-65
2022/04/16 06:35:19;;;;;;;;;0.00;0.00;;;;;16.60;41.42;99201.03;4822177;29;102314;-65
2022/04/16 06:37:46;;;;;;;;;2.00;1.00;;;;;16.60;41.48;99206.50;4830545;29;102367;-64
2022/04/16 06:40:13;;;;;;;;;0.25;0.25;;;;;16.61;41.43;99212.81;4810642;29;104094;-65
2022/04/16 06:42:40;;;;;;;;;1.00;0.50;;;;;16.60;41.22;99211.97;4825793;29;102468;-64
2022/04/16 06:45:08;;;;;;;;;0.00;0.00;;;;;16.61;41.75;99213.66;4825216;29;102305;-65
2022/04/16 06:47:35;;;;;;;;;1.00;1.00;;;;;16.61;41.57;99223.72;4828481;29;102412;-65
2022/04/16 06:50:03;;;;;;;;;1.00;1.00;;;;;16.60;41.49;99220.16;4826065;29;104182;-65
2022/04/16 06:52:30;;;;;;;;;0.00;0.00;;;;;16.61;41.32;99224.56;4827239;29;102317;-64
2022/04/16 06:54:57;;;;;;;;;0.00;0.00;;;;;16.60;41.38;99228.34;4812143;29;102647;-65
2022/04/16 06:57:25;;;;;;;;;1.00;1.00;;;;;16.60;41.89;99228.34;4823685;29;102617;-65
2022/04/16 06:59:52;;;;;;;;;0.25;0.00;;;;;16.59;41.58;99232.13;4821200;29;103939;-64
2022/04/16 07:02:19;;;;;;;;;1.50;1.00;;;;;16.58;41.24;99235.91;4823873;29;102159;-64
2022/04/16 07:04:46;;;;;;;;;1.00;1.00;;;;;16.57;41.19;99239.66;4826987;29;102365;-65
2022/04/16 07:07:13;;;;;;;;;0.00;0.00;;;;;16.57;41.50;99242.41;4824701;29;102064;-65
2022/04/16 07:09:40;;;;;;;;;1.00;0.50;;;;;16.56;41.56;99246.22;4821791;29;104146;-65
2022/04/16 07:12:10;;;;;;;;;0.00;0.00;;;;;16.57;41.22;99250.59;4825059;29;102367;-65
2022/04/16 07:14:38;;;;;;;;;1.00;1.00;;;;;16.55;41.98;99257.34;4808623;29;102408;-64
2022/04/16 07:17:06;;;;;;;;;2.00;1.00;;;;;16.53;41.71;99255.66;4823734;29;102303;-65
2022/04/16 07:19:33;;;;;;;;;0.75;0.00;;;;;16.54;41.68;99253.78;4822960;29;104170;-65
2022/04/16 07:22:00;;;;;;;;;0.00;0.00;;;;;16.56;41.35;99253.56;4823701;29;102448;-65
2022/04/16 07:24:27;;;;;;;;;0.75;0.75;;;;;16.57;41.50;99261.50;4827430;29;102415;-65
2022/04/16 07:26:54;;;;;;;;;0.50;0.00;;;;;16.56;41.32;99257.13;4824758;29;102250;-65
2022/04/16 07:29:22;;;;;;;;;0.00;0.00;;;;;16.57;41.25;99271.63;4820800;29;104238;-65
2022/04/16 07:31:49;;;;;;;;;1.00;1.00;;;;;16.56;41.52;99257.13;4810509;29;102125;-65
2022/04/16 07:34:16;;;;;;;;;0.00;0.00;;;;;16.58;41.28;99268.69;4825273;29;102472;-64
2022/04/16 07:36:43;;;;;;;;;0.00;0.00;;;;;16.57;41.70;99266.16;4811930;29;102185;-64
2022/04/16 07:39:10;;;;;;;;;0.50;0.50;;;;;16.57;41.07;99271.63;4807744;29;104049;-65
2022/04/16 07:41:37;;;;;;;;;1.00;1.00;;;;;16.56;41.70;99272.66;4827470;29;102340;-65
2022/04/16 07:44:05;;;;;;;;;0.00;0.00;;;;;16.55;41.49;99279.19;4826783;29;102176;-65
2022/04/16 07:46:32;;;;;;;;;0.75;0.75;;;;;16.53;41.68;99282.97;4825554;29;102544;-65
2022/04/16 07:48:59;;;;;;;;;1.00;1.00;;;;;16.53;40.90;99282.97;4823140;29;104102;-65
2022/04/16 07:51:27;;;;;;;;;0.50;0.50;;;;;16.52;41.07;99292.22;4823731;29;102363;-64
2022/04/16 07:53:54;;;;;;;;;1.00;0.00;;;;;16.54;41.20;99297.47;4827998;29;102136;-65
2022/04/16 07:56:21;;;;;;;;;0.75;0.50;;;;;16.51;41.61;99298.75;4821646;29;102651;-65
2022/04/16 07:58:48;;;;;;;;;1.00;0.00;;;;;16.55;41.16;99296.41;4823796;29;104357;-65
2022/04/16 08:01:15;;;;;;;;;0.00;0.00;;;;;16.60;41.52;99299.34;4825387;29;102167;-65
2022/04/16 08:03:42;;;;;;;;;0.00;0.00;;;;;16.59;41.22;99296.81;4825522;29;102253;-65
2022/04/16 08:06:09;;;;;;;;;0.00;0.00;;;;;16.58;41.52;99298.72;4826729;29;102282;-65
2022/04/16 08:08:35;;;;;;;;;1.00;1.00;;;;;16.57;41.11;99302.47;4823293;29;104332;-65
2022/04/16 08:11:02;;;;;;;;;1.00;1.00;;;;;16.58;41.44;99303.34;4827644;29;102163;-65
2022/04/16 08:13:29;;;;;;;;;0.25;0.00;;;;;16.57;41.29;99312.56;4823895;29;102208;-64
2022/04/16 08:15:56;;;;;;;;;1.00;1.00;;;;;16.58;41.50;99312.38;4827134;29;102355;-65
2022/04/16 08:18:23;;;;;;;;;0.00;0.00;;;;;16.58;41.39;99309.63;4821205;29;104108;-64
2022/04/16 08:20:50;;;;;;;;;1.00;1.00;;;;;16.56;41.38;99305.44;4806739;29;102149;-65
2022/04/16 08:23:17;;;;;;;;;0.75;0.75;;;;;16.55;41.28;99312.78;4819440;29;102571;-65
2022/04/16 08:25:44;;;;;;;;;0.00;0.00;;;;;16.55;41.56;99311.94;4828760;29;102297;-65
2022/04/16 08:28:11;;;;;;;;;0.00;0.00;;;;;16.52;40.85;99319.50;4826225;29;104061;-65
2022/04/16 08:30:38;;;;;;;;;0.00;0.00;;;;;16.53;41.68;99317.63;4810582;29;102116;-64
2022/04/16 08:33:07;;;;;;;;;0.25;0.25;;;;;16.52;41.41;99318.69;4828080;29;102207;-65
2022/04/16 08:35:34;;;;;;;;;1.50;0.50;;;;;16.52;40.79;99318.69;4827860;29;102705;-65
2022/04/16 08:38:00;;;;;;;;;0.00;0.00;;;;;16.49;41.03;99322.69;4826728;29;104226;-65
2022/04/16 08:40:27;;;;;;;;;0.00;0.00;;;;;16.51;41.06;99323.31;4830073;29;102022;-65
2022/04/16 08:42:54;;;;;;;;;1.00;1.00;;;;;16.50;40.91;99323.53;4823059;29;102416;-65
2022/04/16 08:45:21;;;;;;;;;1.00;1.00;;;;;16.51;41.45;99334.25;4798876;29;102542;-65
2022/04/16 08:47:49;;;;;;;;;1.00;1.00;;;;;16.52;41.57;99335.88;4811674;29;104077;-64
2022/04/16 08:50:16;;;;;;;;;0.50;0.50;;;;;16.53;41.37;99336.72;4796345;29;102155;-65
2022/04/16 08:52:43;;;;;;;;;0.25;0.00;;;;;16.54;40.92;99346.59;4828876;29;102252;-65
2022/04/16 08:55:11;;;;;;;;;1.50;1.00;;;;;16.55;40.90;99350.16;4830723;29;102930;-65
2022/04/16 08:57:39;;;;;;;;;0.00;0.00;;;;;16.55;40.98;99350.16;4831006;29;104103;-65
2022/04/16 09:00:07;;;;;;;;;0.50;0.50;;;;;16.55;41.20;99351.00;4826756;29;102403;-65
2022/04/16 09:02:34;;;;;;;;;1.00;1.00;;;;;16.55;41.10;99355.63;4829200;29;102485;-64
2022/04/16 09:05:08;;;;;;;;;1.00;1.00;;;;;16.53;41.36;99353.09;4829559;29;102088;-65
2022/04/16 09:07:49;;;;;;;;;1.00;0.75;;;;;16.54;41.10;99360.25;4826088;29;104054;-65
2022/04/16 09:10:16;;;;;;;;;0.75;0.00;;;;;16.54;41.65;99360.25;4828424;29;102419;-66
2022/04/16 09:12:45;;;;;;;;;0.00;0.00;;;;;16.53;41.29;99362.13;4827055;29;102514;-65
2022/04/16 09:15:13;;;;;;;;;1.00;0.25;;;;;16.54;40.98;99362.97;4829009;29;102036;-64
2022/04/16 09:17:40;;;;;;;;;0.00;0.00;;;;;16.54;40.99;99360.25;4809030;29;104093;-65
2022/04/16 09:20:14;;;;;;;;;0.75;0.75;;;;;16.54;40.82;99365.72;4811382;29;102603;-65
2022/04/16 09:22:48;;;;;;;;;0.00;0.00;;;;;16.55;41.12;99361.94;4826427;29;102220;-65
2022/04/16 09:25:17;;;;;;;;;1.00;1.00;;;;;16.57;40.82;99365.25;4830390;29;102195;-65
2022/04/16 09:27:49;;;;;;;;;1.00;0.00;;;;;16.58;40.55;99374.31;4826851;29;104402;-65
2022/04/16 09:30:23;;;;;;;;;0.75;0.75;;;;;16.59;41.22;99379.56;4824575;29;102386;-65
2022/04/16 09:32:52;;;;;;;;;0.75;0.75;;;;;16.62;40.58;99378.28;4820905;29;102356;-64
2022/04/16 09:35:37;;;;;;;;;1.00;1.00;;;;;16.66;41.11;99372.16;4828009;29;102385;-64
2022/04/16 09:38:12;;;;;;;;;0.00;0.00;;;;;16.71;40.20;99376.94;4824951;29;104095;-64
2022/04/16 09:40:40;;;;;;;;;0.75;0.75;;;;;16.74;40.14;99382.00;4827299;29;102284;-64
2022/04/16 09:43:07;;;;;;;;;0.50;0.50;;;;;16.75;40.93;99381.75;4826714;29;102432;-65
2022/04/16 09:45:37;;;;;;;;;2.00;1.00;;;;;16.75;40.54;99383.69;4829761;29;102265;-65
2022/04/16 09:48:04;;;;;;;;;0.75;0.75;;;;;16.73;41.01;99386.63;4823597;29;103802;-65
2022/04/16 09:50:32;;;;;;;;;1.00;1.00;;;;;16.74;39.96;99392.91;4811624;29;102428;-65
2022/04/16 09:53:01;;;;;;;;;0.00;0.00;;;;;16.69;40.77;99388.13;4825950;29;102463;-65
2022/04/16 09:55:28;;;;;;;;;1.00;1.00;;;;;16.67;40.82;99395.69;4831278;29;102192;-65
2022/04/16 09:58:04;;;;;;;;;0.50;0.50;;;;;16.67;40.65;99398.41;4825684;29;104091;-65
2022/04/16 10:00:33;;;;;;;;;1.00;1.00;;;;;16.63;40.65;99402.66;4826603;29;102332;-65
2022/04/16 10:03:19;;;;;;;;;0.00;0.00;;;;;16.65;40.29;99394.25;4825122;29;102098;-65
2022/04/16 10:05:46;;;;;;;;;1.00;0.25;;;;;16.67;40.21;99398.41;4813215;29;102439;-65
2022/04/16 10:08:13;;;;;;;;;0.75;0.75;;;;;16.66;40.42;99407.66;4827230;29;104241;-65
2022/04/16 10:10:41;;;;;;;;;1.25;0.50;;;;;16.66;40.72;99418.56;4828884;29;102527;-65
2022/04/16 10:13:10;;;;;;;;;1.00;1.00;;;;;16.69;40.13;99418.16;4826803;29;102435;-65
2022/04/16 10:15:46;;;;;;;;;1.00;0.00;;;;;16.73;40.20;99411.19;4814400;29;102571;-65
2022/04/16 10:18:13;;;;;;;;;0.00;0.00;;;;;16.75;40.02;99419.19;4827782;29;104439;-65
2022/04/16 10:20:58;;;;;;;;;1.00;1.00;;;;;16.77;40.43;99419.78;4829079;29;102013;-65
2022/04/16 10:23:37;;;;;;;;;1.00;1.00;;;;;16.78;40.54;99418.72;4824326;29;102218;-65
2022/04/16 10:26:09;;;;;;;;;0.00;0.00;;;;;16.77;40.55;99414.31;4828808;29;102303;-65
2022/04/16 10:28:43;;;;;;;;;0.75;0.75;;;;;16.78;39.99;99416.00;4824811;29;104873;-65
2022/04/16 10:31:29;;;;;;;;;1.00;1.00;;;;;16.78;41.08;99407.81;4812237;29;102189;-65
2022/04/16 10:34:09;;;;;;;;;1.00;1.00;;;;;16.79;41.10;99412.22;4809448;29;102177;-65
2022/04/16 10:36:38;;;;;;;;;0.75;0.75;;;;;16.79;39.92;99404.88;4827022;29;102493;-65
2022/04/16 10:39:18;;;;;;;;;0.50;0.50;;;;;16.79;40.51;99415.78;4812497;29;104281;-65
2022/04/16 10:42:03;;;;;;;;;1.00;1.00;;;;;16.79;40.87;99413.06;4824131;29;102139;-65
2022/04/16 10:44:53;;;;;;;;;2.00;1.00;;;;;16.80;40.27;99414.72;4818711;29;102135;-65
2022/04/16 10:47:23;;;;;;;;;1.00;1.00;;;;;16.81;40.52;99416.38;4812581;29;102304;-64
2022/04/16 10:49:56;;;;;;;;;0.67;0.67;;;;;16.81;40.26;99405.47;4810445;29;103868;-65
2022/04/16 10:52:23;;;;;;;;;1.50;0.75;;;;;16.82;40.96;99415.34;4813973;29;102425;-64
2022/04/16 10:55:04;;;;;;;;;0.00;0.00;;;;;16.84;40.65;99415.94;4827633;29;102084;-65
2022/04/16 10:57:30;;;;;;;;;1.00;0.75;;;;;16.84;39.81;99404.19;4822382;29;102392;-65
2022/04/16 10:59:57;;;;;;;;;1.00;1.00;;;;;16.85;40.52;99417.63;4808062;29;104102;-64
2022/04/16 11:02:37;;;;;;;;;0.50;0.50;;;;;16.86;40.06;99402.91;4826163;29;102049;-65
2022/04/16 11:05:10;;;;;;;;;1.25;1.00;;;;;16.88;39.92;99405.44;4826916;29;102401;-66
2022/04/16 11:07:38;;;;;;;;;0.50;0.50;;;;;16.88;40.03;99398.06;4811670;29;102694;-65
2022/04/16 11:10:09;;;;;;;;;1.00;1.00;;;;;16.90;40.26;99406.03;4826604;29;104071;-65
2022/04/16 11:12:37;;;;;;;;;0.25;0.25;;;;;16.90;39.80;99404.13;4827214;29;102219;-65
2022/04/16 11:15:14;;;;;;;;;1.00;1.00;;;;;16.91;39.93;99411.28;4809730;29;102362;-65
2022/04/16 11:17:41;;;;;;;;;0.00;0.00;;;;;16.91;40.65;99402.25;4826842;29;102396;-65
2022/04/16 11:20:08;;;;;;;;;1.00;1.00;;;;;16.90;40.43;99409.59;4825107;29;104042;-65
2022/04/16 11:22:37;;;;;;;;;1.00;1.00;;;;;16.90;39.88;99404.13;4827477;29;102495;-64
2022/04/16 11:25:08;;;;;;;;;0.50;0.50;;;;;16.93;39.95;99408.34;4795597;29;103092;-64
2022/04/16 11:36:01;;;;;;;;;1.00;1.00;;;;;16.97;40.37;99412.28;4823995;29;102594;-65
2022/04/16 11:38:29;;;;;;;;;1.00;1.00;;;;;16.98;40.20;99416.66;4823513;29;102133;-64
2022/04/16 11:41:00;;;;;;;;;1.25;1.00;;;;;17.01;39.95;99415.41;4827455;29;104035;-65
2022/04/16 11:43:30;;;;;;;;;1.00;1.00;;;;;17.01;39.65;99407.22;4823032;29;102140;-64
2022/04/16 11:46:04;;;;;;;;;1.00;1.00;;;;;17.02;40.28;99417.09;4811472;29;102356;-65
2022/04/16 11:48:31;;;;;;;;;0.50;0.50;;;;;17.03;39.88;99414.09;4827446;29;102422;-64
2022/04/16 11:50:58;;;;;;;;;0.75;0.00;;;;;17.04;40.14;99414.94;4826694;29;104125;-64
2022/04/16 11:53:25;;;;;;;;;1.00;1.00;;;;;17.05;40.33;99417.47;4826588;29;103064;-64
2022/04/16 11:56:00;;;;;;;;;1.75;1.00;;;;;17.06;40.00;99418.31;4810527;29;102305;-65